Princeton Airport

CYDC · 不列颠哥伦比亚, 加拿大

使用的TAF站离机场有36 NM的距离
2024年6月21日 06:002024年6月21日 18:00有效
时间
星期五
06:00
星期五
07:00
星期五
08:00
星期五
09:00
星期五
10:00
星期五
11:00
星期五
12:00
星期五
13:00
星期五
14:00
星期五
15:00
星期五
16:00
星期五
17:00
代码
VFR
VFR
VFR
VFR
VFR
VFR
VFR
VFR
VFR
VFR
VFR
VFR
天气
几云
几云
几云
几云
几云
几云
疏云,零星散落的云朵
疏云,零星散落的云朵
疏云,零星散落的云朵
疏云,零星散落的云朵
疏云,零星散落的云朵
疏云,零星散落的云朵
能见度
6 mi+
6 mi+
6 mi+
6 mi+
6 mi+
6 mi+
6 mi+
6 mi+
6 mi+
6 mi+
6 mi+
6 mi+
天花板
-
-
-
-
-
-
-
-
-
-
-
-
360°
360°
360°
360°
360°
360°
360°
360°
360°
360°
360°
360°
360°
360°
360°
360°
360°
360°
360°
360°
360°
360°
360°
360°
速度
5 kt
5 kt
5 kt
5 kt
5 kt
5 kt
8 kt
8 kt
8 kt
8 kt
8 kt
8 kt
阵风
温度/星期日

原版的

TAF CYYF 211240Z 2113/2201 36005KT P6SM FEW080
FM211900 36008KT P6SM SCT080 RMK NXT FCST BY 211900Z

TAF Princeton Airport

Princeton Airport是,加拿大中的中型机场。 该机场位于纬度49,46787和经度-120,51250。 该机场有一条跑道: 3/21. 本场的ICAO机场代码为CYDC。 机场在Vancouver FIR中。

该航空气象观测是针对Penticton Airport在2024年6月21日 05:40, 当地时间进行的。 从2024年6月21日 06:00到2024年6月21日 18:00, 当地时间有效.

预报

  • 在星期五 06:00和18:00之间

    • 风: 风来自360°方向,速度为5 kt。
    • 能见度: 6 mi 或者更多
    • 乌云: 几云在8.000 ft的高度.
  • 从星期五 12:00开始

    • 风: 风来自360°方向,速度为8 kt。
    • 能见度: 6 mi 或者更多
    • 乌云: 疏云,零星散落的云朵在8.000 ft的高度.

白天

今天,太阳从04:55升起,在21:12降落。 这适用于Princeton Airport,世界夏令时可能有所不同。 当地时间与世界标准时间之间的时差为-7 小时。 夏令时目前正在进行中。

报告变更